Time;durP1;ratioP1;P1;durP2;ratioP2;P2;SDS_P1;SDS_P2;PMS_P1;PMS_P2;Temp;Humidity;BMP_temperature;BMP_pressure;BME280_temperature;BME280_humidity;BME280_pressure;Samples;Min_cycle;Max_cycle;Signal;HPM_P1;HPM_P2
2022/06/04 00:00:35;;;;;;;11.10;8.02;;;11.00;99.90;;;;;;4961546;28;89401;-33
2022/06/04 00:03:00;;;;;;;13.32;9.05;;;11.00;99.90;;;;;;4961332;28;89427;-36
2022/06/04 00:05:30;;;;;;;14.75;8.95;;;11.00;99.90;;;;;;4961625;28;90355;-36
2022/06/04 00:07:58;;;;;;;8.15;7.45;;;11.00;99.90;;;;;;4960737;28;89563;-34
2022/06/04 00:15:55;;;;;;;19.45;8.95;;;10.90;99.90;;;;;;4959985;28;90625;-37
2022/06/04 00:18:23;;;;;;;9.30;8.32;;;10.90;99.90;;;;;;4961379;28;89392;-34
2022/06/04 00:20:50;;;;;;;12.45;8.13;;;10.90;99.90;;;;;;4961175;28;89552;-33
2022/06/04 00:23:17;;;;;;;11.65;9.15;;;10.90;99.90;;;;;;4961471;28;89248;-35
2022/06/04 00:25:47;;;;;;;11.05;9.05;;;10.80;99.90;;;;;;4960816;28;90471;-38
2022/06/04 00:28:13;;;;;;;11.90;8.77;;;10.80;99.90;;;;;;4961116;28;90182;-34
2022/06/04 00:30:39;;;;;;;10.80;9.60;;;10.80;99.90;;;;;;4961405;28;89818;-33
2022/06/04 00:33:05;;;;;;;10.02;8.65;;;10.90;99.90;;;;;;4960696;28;89283;-36
2022/06/04 00:35:31;;;;;;;16.77;9.07;;;10.90;99.90;;;;;;4961264;28;90184;-34
2022/06/04 00:37:57;;;;;;;10.88;9.38;;;10.90;99.90;;;;;;4961183;28;89143;-32
2022/06/04 00:40:32;;;;;;;11.35;9.77;;;10.80;99.90;;;;;;4961003;28;90667;-34
2022/06/04 00:42:58;;;;;;;15.23;8.75;;;10.80;99.90;;;;;;4960568;28;89558;-34
2022/06/04 00:45:35;;;;;;;16.02;10.15;;;10.70;99.90;;;;;;4960875;28;91585;-37
2022/06/04 00:48:07;;;;;;;15.15;9.23;;;10.70;99.90;;;;;;4959869;28;88855;-33
2022/06/04 00:50:36;;;;;;;13.48;9.57;;;10.80;99.90;;;;;;4961165;28;89378;-33
2022/06/04 00:53:05;;;;;;;19.15;10.07;;;10.80;99.90;;;;;;4960444;28;88966;-35
2022/06/04 00:56:06;;;;;;;17.00;9.75;;;10.80;99.90;;;;;;4992385;22;90366;-37
2022/06/04 00:58:51;;;;;;;11.45;9.45;;;10.80;99.90;;;;;;4960529;28;89699;-35
2022/06/04 01:01:24;;;;;;;14.18;10.02;;;10.80;99.90;;;;;;4960765;28;89242;-36
2022/06/04 01:04:47;;;;;;;22.27;11.70;;;10.90;99.90;;;;;;4960123;28;90514;-33
2022/06/04 01:07:14;;;;;;;16.55;9.95;;;10.80;99.90;;;;;;4959497;28;90866;-35
2022/06/04 01:09:53;;;;;;;17.90;10.48;;;10.70;99.90;;;;;;4959680;28;89350;-34
2022/06/04 01:12:25;;;;;;;;;;;10.80;99.90;;;;;;4960353;28;89535;-37
2022/06/04 01:15:07;;;;;;;17.85;11.98;;;10.70;99.90;;;;;;4961701;28;88102;-34
2022/06/04 01:18:00;;;;;;;15.60;11.95;;;10.70;99.90;;;;;;4959889;28;90268;-36
2022/06/04 01:20:35;;;;;;;24.15;11.02;;;10.60;99.90;;;;;;4959814;28;89636;-34
2022/06/04 01:23:10;;;;;;;17.20;11.32;;;10.60;99.90;;;;;;4960108;28;90263;-32
2022/06/04 01:25:59;;;;;;;14.07;11.25;;;10.60;99.90;;;;;;4959243;28;90035;-35
2022/06/04 01:28:28;;;;;;;13.52;10.80;;;10.60;99.90;;;;;;4958553;28;91421;-34
2022/06/04 01:30:57;;;;;;;17.48;12.35;;;10.60;99.90;;;;;;4958606;28;92411;-38
2022/06/04 01:33:38;;;;;;;15.40;9.88;;;10.60;99.90;;;;;;4959702;28;91160;-33
2022/06/04 01:36:12;;;;;;;14.07;11.35;;;10.50;99.90;;;;;;4960494;28;89227;-35
2022/06/04 01:38:42;;;;;;;18.92;11.02;;;10.50;99.90;;;;;;4959118;28;90113;-35
2022/06/04 01:41:16;;;;;;;17.45;11.90;;;10.50;99.90;;;;;;4959995;28;89549;-36
2022/06/04 01:44:00;;;;;;;17.58;12.63;;;10.50;99.90;;;;;;4959070;28;90361;-35
2022/06/04 01:46:33;;;;;;;22.05;11.98;;;10.50;99.90;;;;;;4948851;28;89409;-38
2022/06/04 01:49:16;;;;;;;13.15;11.18;;;10.40;99.90;;;;;;4958824;28;88866;-37
2022/06/04 01:51:44;;;;;;;15.98;11.05;;;10.50;99.90;;;;;;4959360;28;89550;-38
2022/06/04 01:54:19;;;;;;;16.85;12.95;;;10.50;99.90;;;;;;4958682;28;89097;-37
2022/06/04 01:56:51;;;;;;;15.55;11.20;;;10.50;99.90;;;;;;4958397;28;88634;-35
2022/06/04 01:59:23;;;;;;;18.45;11.50;;;10.50;99.90;;;;;;4958837;28;90369;-34
2022/06/04 02:01:52;;;;;;;18.42;11.18;;;10.50;99.90;;;;;;4959386;28;89736;-32
2022/06/04 02:04:23;;;;;;;19.13;11.45;;;10.40;99.90;;;;;;4958909;28;88164;-36
2022/06/04 02:09:45;;;;;;;18.13;11.13;;;10.40;99.90;;;;;;4958593;28;90564;-35
2022/06/04 02:12:12;;;;;;;20.92;11.98;;;10.40;99.90;;;;;;4958894;28;90454;-34
2022/06/04 02:14:40;;;;;;;20.23;10.88;;;10.40;99.90;;;;;;4958885;28;89623;-36
2022/06/04 02:17:08;;;;;;;15.57;10.85;;;10.40;99.90;;;;;;4959426;28;89349;-37
2022/06/04 02:19:34;;;;;;;17.88;10.75;;;10.40;99.90;;;;;;4958973;28;89490;-40
2022/06/04 02:22:01;;;;;;;13.07;10.32;;;10.40;99.90;;;;;;4958479;28;90574;-38
2022/06/04 02:24:27;;;;;;;23.00;11.48;;;10.30;99.90;;;;;;4958685;28;90631;-37
2022/06/04 02:26:53;;;;;;;17.83;10.13;;;10.30;99.90;;;;;;4958939;28;89783;-34
2022/06/04 02:29:19;;;;;;;17.75;12.07;;;10.30;99.90;;;;;;4958840;28;89376;-33
2022/06/04 02:31:51;;;;;;;14.82;11.05;;;10.30;99.90;;;;;;4958886;28;89747;-34
2022/06/04 02:34:51;;;;;;;13.63;10.77;;;10.30;99.90;;;;;;4945039;28;89178;-38
2022/06/04 02:37:39;;;;;;;14.02;11.20;;;10.30;99.90;;;;;;4958604;28;89587;-33
2022/06/04 02:40:08;;;;;;;;;;;10.20;99.90;;;;;;4960481;28;90109;-34
2022/06/04 02:42:42;;;;;;;17.40;11.38;;;10.20;99.90;;;;;;4964278;28;89003;-34
2022/06/04 02:45:36;;;;;;;23.60;11.38;;;10.20;99.90;;;;;;4962887;28;89309;-33
2022/06/04 02:48:30;;;;;;;14.80;11.77;;;10.20;99.90;;;;;;4960555;28;88310;-35
2022/06/04 02:51:00;;;;;;;19.50;11.07;;;10.20;99.90;;;;;;4962141;28;90666;-38
2022/06/04 02:53:30;;;;;;;15.60;10.93;;;10.10;99.90;;;;;;4962123;28;91013;-36
2022/06/04 02:56:06;;;;;;;17.25;11.55;;;10.20;99.90;;;;;;4961795;28;89587;-35
2022/06/04 02:58:34;;;;;;;15.85;11.13;;;10.20;99.90;;;;;;4962907;28;89640;-32
2022/06/04 03:01:02;;;;;;;21.33;10.13;;;10.10;99.90;;;;;;4962268;28;89398;-35
2022/06/04 03:03:27;;;;;;;14.57;10.95;;;10.10;99.90;;;;;;4961524;28;90202;-34
2022/06/04 03:05:59;;;;;;;14.80;9.98;;;10.10;99.90;;;;;;4961764;28;89519;-37
2022/06/04 03:08:30;;;;;;;17.45;12.07;;;10.10;99.90;;;;;;4961184;28;89101;-33
2022/06/04 03:10:56;;;;;;;13.95;10.27;;;10.10;99.90;;;;;;4961480;28;90249;-36
2022/06/04 03:13:22;;;;;;;26.10;11.57;;;10.10;99.90;;;;;;4961879;28;90506;-33
2022/06/04 03:15:48;;;;;;;11.93;10.25;;;10.20;99.90;;;;;;4961281;28;90426;-32
2022/06/04 03:18:14;;;;;;;12.02;10.82;;;10.10;99.90;;;;;;4961558;28;89342;-38
2022/06/04 03:20:41;;;;;;;14.35;10.40;;;10.10;99.90;;;;;;4961661;28;90373;-33
2022/06/04 03:23:07;;;;;;;14.55;10.65;;;10.10;99.90;;;;;;4961703;28;89636;-34
2022/06/04 03:25:34;;;;;;;14.60;10.35;;;10.00;99.90;;;;;;4961038;28;89833;-36
2022/06/04 03:28:00;;;;;;;14.88;9.18;;;10.10;99.90;;;;;;4961482;28;89373;-37
2022/06/04 03:30:26;;;;;;;16.63;11.80;;;10.00;99.90;;;;;;4961696;28;91147;-33
2022/06/04 03:32:53;;;;;;;18.70;10.98;;;10.10;99.90;;;;;;4961247;28;88792;-35
2022/06/04 03:35:19;;;;;;;13.88;9.93;;;10.10;99.90;;;;;;4961474;28;89117;-35
2022/06/04 03:37:45;;;;;;;12.25;9.57;;;10.10;99.90;;;;;;4961517;28;90505;-35
2022/06/04 03:40:11;;;;;;;13.07;8.82;;;10.00;99.90;;;;;;4962383;28;89890;-38
2022/06/04 03:42:37;;;;;;;12.15;9.45;;;10.00;99.90;;;;;;4961883;28;89760;-34
2022/06/04 03:45:05;;;;;;;18.85;11.65;;;10.10;99.90;;;;;;4961926;28;89746;-33
2022/06/04 03:47:36;;;;;;;13.40;11.68;;;10.10;99.90;;;;;;4961828;28;88330;-34
2022/06/04 03:50:03;;;;;;;12.18;9.27;;;10.20;99.90;;;;;;4975746;28;90183;-35
2022/06/04 03:52:29;;;;;;;16.27;9.25;;;10.20;99.90;;;;;;4962214;28;90449;-37
2022/06/04 03:54:55;;;;;;;14.57;10.88;;;10.20;99.90;;;;;;4961538;28;90218;-34
2022/06/04 03:57:38;;;;;;;15.13;11.25;;;10.20;99.90;;;;;;4960836;28;89125;-36
2022/06/04 04:00:09;;;;;;;16.00;11.10;;;10.20;99.90;;;;;;4961614;28;90333;-35
2022/06/04 04:02:35;;;;;;;19.45;11.57;;;10.30;99.90;;;;;;4960206;28;91391;-36
2022/06/04 04:05:00;;;;;;;19.05;11.52;;;10.30;99.90;;;;;;4960765;28;90348;-38
2022/06/04 04:07:26;;;;;;;11.15;9.00;;;10.30;99.90;;;;;;4961597;28;87924;-34
2022/06/04 04:09:51;;;;;;;15.43;10.40;;;10.40;99.90;;;;;;4960629;28;92120;-34
2022/06/04 04:12:17;;;;;;;14.23;9.90;;;10.40;99.90;;;;;;4960915;28;90342;-33
2022/06/04 04:14:43;;;;;;;15.55;10.02;;;10.40;99.90;;;;;;4961048;28;90471;-34
2022/06/04 04:17:09;;;;;;;18.17;10.68;;;10.40;99.90;;;;;;4961023;28;89404;-33
2022/06/04 04:19:35;;;;;;;11.25;9.98;;;10.40;99.90;;;;;;4961075;28;90204;-37
2022/06/04 04:22:01;;;;;;;14.82;9.45;;;10.50;99.90;;;;;;4960680;28;89485;-33
2022/06/04 04:24:27;;;;;;;13.50;9.88;;;10.50;99.90;;;;;;4961249;28;89318;-35
2022/06/04 04:26:53;;;;;;;11.15;9.55;;;10.60;99.90;;;;;;4961230;28;89772;-34
2022/06/04 04:29:19;;;;;;;10.75;8.93;;;10.70;99.90;;;;;;4961399;28;89863;-36
2022/06/04 04:31:45;;;;;;;13.35;8.85;;;10.90;99.90;;;;;;4961372;28;90225;-36
2022/06/04 04:34:10;;;;;;;12.13;8.40;;;11.00;99.90;;;;;;4960399;28;89000;-37
2022/06/04 04:36:36;;;;;;;11.77;8.13;;;11.00;99.90;;;;;;4961242;28;90481;-33
2022/06/04 04:39:02;;;;;;;10.73;7.95;;;11.10;99.90;;;;;;4961589;28;90260;-32
2022/06/04 04:41:28;;;;;;;10.95;8.25;;;11.30;99.90;;;;;;4961147;28;89927;-33
2022/06/04 04:43:54;;;;;;;14.52;8.82;;;11.40;99.90;;;;;;4960847;28;89702;-35
2022/06/04 04:46:20;;;;;;;11.60;9.55;;;11.50;99.90;;;;;;4961669;28;89276;-38
2022/06/04 04:48:47;;;;;;;12.80;7.55;;;11.60;99.90;;;;;;4960168;28;90402;-37
2022/06/04 04:51:21;;;;;;;11.13;6.88;;;11.60;99.90;;;;;;4960650;28;89623;-34
2022/06/04 04:53:48;;;;;;;10.00;8.15;;;11.50;99.90;;;;;;4960002;28;90957;-35
2022/06/04 04:56:15;;;;;;;13.00;9.02;;;11.50;99.90;;;;;;4961020;28;88578;-38
2022/06/04 04:58:40;;;;;;;11.60;7.85;;;11.60;99.90;;;;;;4960867;28;90055;-33
2022/06/04 05:01:17;;;;;;;12.05;7.97;;;11.70;99.90;;;;;;4960437;28;90162;-35
2022/06/04 05:03:44;;;;;;;10.32;6.85;;;11.90;99.90;;;;;;4959704;28;89228;-35
2022/06/04 05:06:11;;;;;;;13.07;8.02;;;11.90;99.90;;;;;;4961293;28;88614;-37
2022/06/04 05:08:37;;;;;;;9.60;6.68;;;12.00;99.90;;;;;;4960438;28;89701;-34
2022/06/04 05:11:11;;;;;;;7.72;7.03;;;11.90;99.90;;;;;;4960302;28;89787;-38
2022/06/04 05:13:37;;;;;;;8.25;7.45;;;12.00;99.90;;;;;;4960358;28;89581;-35
2022/06/04 05:16:04;;;;;;;14.80;7.85;;;12.10;99.90;;;;;;4959863;28;89762;-36
2022/06/04 05:18:30;;;;;;;9.65;7.60;;;12.30;99.90;;;;;;4960640;28;91601;-35
2022/06/04 05:21:21;;;;;;;9.00;6.75;;;12.40;99.90;;;;;;4960021;28;89856;-34
2022/06/04 05:23:48;;;;;;;8.57;6.88;;;12.50;99.90;;;;;;4958911;28;89490;-35
2022/06/04 05:26:14;;;;;;;9.98;7.25;;;12.60;99.90;;;;;;4960351;28;88230;-35
2022/06/04 05:28:40;;;;;;;8.65;7.60;;;12.60;99.90;;;;;;4959827;28;90332;-38
2022/06/04 05:31:05;;;;;;;11.10;7.63;;;12.70;99.90;;;;;;4959773;28;91214;-34
2022/06/04 05:33:31;;;;;;;11.60;7.25;;;12.90;99.90;;;;;;4960165;28;89720;-37
2022/06/04 05:35:57;;;;;;;7.90;7.10;;;13.00;99.90;;;;;;4960139;28;89093;-34
2022/06/04 05:38:23;;;;;;;11.18;7.57;;;13.00;99.90;;;;;;4959833;28;91391;-36
2022/06/04 05:40:48;;;;;;;9.82;6.43;;;13.00;99.90;;;;;;4959474;28;90659;-36
2022/06/04 05:43:14;;;;;;;10.80;6.93;;;13.10;99.90;;;;;;4958901;28;90584;-36
2022/06/04 05:45:40;;;;;;;12.90;7.93;;;13.00;99.90;;;;;;4959294;28;89353;-34
2022/06/04 05:48:05;;;;;;;13.63;6.80;;;13.10;99.90;;;;;;4960311;28;89175;-34
2022/06/04 05:50:31;;;;;;;9.35;6.90;;;13.10;99.90;;;;;;4959886;28;89657;-38
2022/06/04 05:52:57;;;;;;;8.65;7.53;;;13.40;99.90;;;;;;4960396;28;88498;-36
2022/06/04 05:55:22;;;;;;;7.30;6.38;;;13.40;99.90;;;;;;4959578;28;90335;-37
2022/06/04 05:57:48;;;;;;;8.73;7.00;;;13.40;99.90;;;;;;4959615;28;90181;-38
2022/06/04 06:00:14;;;;;;;6.82;6.07;;;13.50;99.90;;;;;;4959989;28;88755;-35
2022/06/04 06:02:40;;;;;;;10.60;6.78;;;13.80;99.90;;;;;;4957761;28;91186;-36
2022/06/04 06:05:06;;;;;;;8.57;6.97;;;13.70;99.90;;;;;;4959273;28;89390;-34
2022/06/04 06:07:32;;;;;;;13.30;7.45;;;13.90;99.90;;;;;;4959780;28;90576;-37
2022/06/04 06:09:58;;;;;;;13.38;5.78;;;14.00;99.90;;;;;;4958701;28;89567;-36
2022/06/04 06:12:23;;;;;;;7.43;6.20;;;14.00;99.90;;;;;;4960221;28;89370;-35
2022/06/04 06:14:49;;;;;;;12.20;6.32;;;14.10;99.90;;;;;;4958361;28;89156;-35
2022/06/04 06:17:15;;;;;;;7.00;6.30;;;14.10;99.90;;;;;;4960140;28;90223;-35
2022/06/04 06:19:40;;;;;;;10.07;6.05;;;13.90;99.90;;;;;;4959296;28;90453;-36
2022/06/04 06:22:06;;;;;;;10.77;6.55;;;13.90;99.90;;;;;;4959980;28;88694;-37
2022/06/04 06:24:32;;;;;;;7.55;6.47;;;13.90;99.90;;;;;;4959620;28;87706;-36
2022/06/04 06:26:59;;;;;;;10.70;6.75;;;13.90;99.90;;;;;;4958646;28;89806;-33
2022/06/04 06:29:27;;;;;;;8.52;5.90;;;14.00;99.90;;;;;;4959506;28;90642;-35
2022/06/04 06:31:54;;;;;;;9.80;6.32;;;14.20;99.90;;;;;;4959437;28;89101;-34
2022/06/04 06:34:21;;;;;;;10.43;6.05;;;14.40;99.90;;;;;;4959822;28;88744;-34
2022/06/04 06:36:47;;;;;;;9.70;6.35;;;14.60;99.90;;;;;;4958438;28;90117;-35
2022/06/04 06:39:13;;;;;;;8.98;5.90;;;15.00;99.90;;;;;;4959667;28;88394;-34
2022/06/04 06:41:39;;;;;;;9.25;6.20;;;14.90;99.90;;;;;;4958927;28;89461;-35
2022/06/04 06:44:05;;;;;;;8.27;6.10;;;14.70;99.90;;;;;;4959561;28;88275;-35
2022/06/04 06:46:43;;;;;;;6.82;5.60;;;14.90;99.90;;;;;;4959647;28;90393;-35
2022/06/04 06:49:11;;;;;;;;;;;14.90;99.90;;;;;;4959680;28;89801;-35
2022/06/04 06:51:53;;;;;;;8.65;7.15;;;15.00;99.90;;;;;;4960221;28;90352;-37
2022/06/04 06:54:21;;;;;;;10.35;5.55;;;14.90;99.90;;;;;;4958622;28;89653;-37
2022/06/04 06:56:48;;;;;;;13.68;6.43;;;15.40;99.90;;;;;;4959167;28;90223;-34
2022/06/04 06:59:14;;;;;;;8.00;6.47;;;15.60;99.90;;;;;;4958877;28;89823;-38
2022/06/04 07:01:42;;;;;;;8.77;5.05;;;15.60;99.90;;;;;;4959342;28;89423;-35
2022/06/04 07:04:09;;;;;;;7.03;6.30;;;15.50;99.90;;;;;;4960069;28;88441;-38
2022/06/04 07:06:34;;;;;;;5.75;5.15;;;15.40;99.90;;;;;;4958692;28;90041;-38
2022/06/04 07:09:02;;;;;;;10.40;6.63;;;15.80;99.90;;;;;;4959124;28;89587;-39
2022/06/04 07:11:28;;;;;;;7.30;6.60;;;15.90;99.90;;;;;;4959531;28;88830;-37
2022/06/04 07:13:54;;;;;;;6.78;6.07;;;15.80;99.90;;;;;;4958951;28;89820;-34
2022/06/04 07:16:20;;;;;;;7.38;6.30;;;15.90;99.90;;;;;;4959546;28;88907;-38
2022/06/04 07:18:45;;;;;;;10.52;6.78;;;16.10;99.90;;;;;;4958805;28;92279;-35
2022/06/04 07:21:11;;;;;;;10.55;6.97;;;16.00;99.90;;;;;;4958517;28;90657;-34
2022/06/04 07:23:38;;;;;;;6.97;6.15;;;15.90;99.90;;;;;;4958825;28;88219;-36
2022/06/04 07:26:05;;;;;;;9.87;6.27;;;16.30;99.90;;;;;;4960341;28;90313;-35
2022/06/04 07:28:32;;;;;;;6.43;5.63;;;16.60;99.90;;;;;;4961741;28;89807;-34
2022/06/04 07:30:58;;;;;;;9.38;6.05;;;16.20;99.90;;;;;;4961081;28;89719;-37
2022/06/04 07:33:26;;;;;;;10.10;6.53;;;16.30;99.90;;;;;;4961608;28;89853;-34
2022/06/04 07:35:51;;;;;;;8.68;5.00;;;16.50;99.90;;;;;;4960114;28;90391;-34
2022/06/04 07:38:17;;;;;;;6.55;5.57;;;16.80;99.90;;;;;;4959915;28;89690;-37
2022/06/04 07:40:45;;;;;;;7.22;5.20;;;16.60;99.90;;;;;;4959461;28;89458;-33
2022/06/04 07:43:11;;;;;;;5.70;5.10;;;16.60;99.90;;;;;;4957868;28;90039;-35
2022/06/04 07:45:37;;;;;;;7.03;5.78;;;16.80;99.90;;;;;;4959606;28;89568;-35
2022/06/04 07:48:04;;;;;;;10.52;6.57;;;17.00;99.90;;;;;;4958420;28;90226;-37
2022/06/04 07:50:30;;;;;;;7.97;5.85;;;16.90;99.90;;;;;;4945616;28;90613;-35
2022/06/04 07:52:57;;;;;;;8.60;6.55;;;16.80;99.90;;;;;;4958153;28;89054;-35
2022/06/04 07:55:23;;;;;;;5.80;5.22;;;17.00;99.90;;;;;;4958939;28;90607;-34
2022/06/04 07:57:49;;;;;;;10.95;6.70;;;16.70;99.90;;;;;;4958310;28;89868;-35
2022/06/04 08:00:15;;;;;;;6.22;5.60;;;16.50;99.90;;;;;;4959520;28;90073;-35
2022/06/04 08:02:42;;;;;;;6.97;5.88;;;16.30;99.90;;;;;;4958055;28;89058;-34
2022/06/04 08:05:09;;;;;;;8.93;7.28;;;16.10;99.90;;;;;;4958619;28;89256;-36
2022/06/04 08:07:36;;;;;;;7.22;6.47;;;16.00;99.90;;;;;;4958180;28;90473;-38
2022/06/04 08:10:03;;;;;;;8.00;5.40;;;16.20;99.90;;;;;;4959162;28;90607;-37
2022/06/04 08:12:34;;;;;;;13.40;5.93;;;16.60;99.90;;;;;;4958813;28;88652;-34
2022/06/04 08:15:01;;;;;;;6.97;6.38;;;16.80;99.90;;;;;;4957598;28;90293;-35
2022/06/04 08:17:27;;;;;;;13.20;5.60;;;16.30;99.90;;;;;;4958184;28;90655;-37
2022/06/04 08:19:52;;;;;;;6.78;5.90;;;16.40;99.90;;;;;;4958430;28;89493;-38
2022/06/04 08:22:18;;;;;;;8.07;5.57;;;16.50;99.90;;;;;;4958301;28;87774;-38
2022/06/04 08:24:47;;;;;;;8.55;5.40;;;16.60;99.90;;;;;;4958799;28;88533;-39
2022/06/04 08:27:13;;;;;;;7.45;5.18;;;16.50;99.90;;;;;;4959229;28;90120;-35
2022/06/04 08:29:39;;;;;;;6.32;5.15;;;16.40;99.90;;;;;;4957818;28;89817;-34
2022/06/04 08:32:05;;;;;;;7.93;6.25;;;16.50;99.90;;;;;;4958357;28;89829;-36
2022/06/04 08:34:32;;;;;;;6.55;5.90;;;16.50;99.90;;;;;;4959100;28;90173;-37
2022/06/04 08:36:59;;;;;;;6.72;6.05;;;16.50;99.90;;;;;;4956564;28;90818;-36
2022/06/04 08:39:26;;;;;;;9.23;6.45;;;16.70;99.90;;;;;;4957794;28;89280;-36
2022/06/04 08:42:10;;;;;;;6.77;5.73;;;16.70;99.90;;;;;;4958635;28;88259;-34
2022/06/04 08:44:50;;;;;;;7.22;5.90;;;16.50;99.90;;;;;;4958116;28;90366;-34
2022/06/04 08:47:15;;;;;;;7.38;6.22;;;16.80;99.90;;;;;;4958068;28;90678;-34
2022/06/04 08:50:01;;;;;;;9.20;6.00;;;16.70;99.90;;;;;;4957979;28;89212;-34
2022/06/04 08:52:33;;;;;;;5.97;5.32;;;16.70;99.90;;;;;;4959055;28;89500;-34
2022/06/04 08:58:12;;;;;;;6.75;5.72;;;16.90;99.90;;;;;;4957966;28;90694;-34
2022/06/04 09:00:49;;;;;;;8.00;5.47;;;16.90;99.90;;;;;;4928326;28;90274;-36
2022/06/04 09:03:17;;;;;;;10.73;6.40;;;17.00;99.90;;;;;;4945762;28;89693;-36
2022/06/04 09:06:03;;;;;;;6.25;5.47;;;17.30;99.90;;;;;;4958076;28;89636;-35
2022/06/04 09:08:41;;;;;;;8.70;6.20;;;17.30;99.90;;;;;;4958231;28;89634;-34
2022/06/04 09:11:13;;;;;;;6.10;5.50;;;17.30;99.90;;;;;;4958254;28;89837;-36
2022/06/04 09:14:17;;;;;;;8.77;6.13;;;17.20;99.90;;;;;;4958049;28;87921;-34
2022/06/04 09:16:59;;;;;;;7.05;5.90;;;17.40;99.90;;;;;;4931594;28;91205;-34
2022/06/04 09:19:33;;;;;;;10.70;6.35;;;17.20;99.90;;;;;;4958287;28;89124;-33
2022/06/04 09:21:59;;;;;;;7.90;6.32;;;17.10;99.90;;;;;;4957796;28;89437;-37
2022/06/04 09:24:25;;;;;;;10.30;5.78;;;17.10;99.90;;;;;;4956640;28;89479;-35
2022/06/04 09:27:13;;;;;;;7.60;5.65;;;17.30;99.90;;;;;;4957788;28;90233;-37
2022/06/04 09:29:44;;;;;;;5.80;5.30;;;17.20;99.90;;;;;;4956773;28;90330;-36
2022/06/04 09:32:12;;;;;;;6.13;5.53;;;17.40;99.90;;;;;;4957931;28;91616;-35
2022/06/04 09:34:47;;;;;;;7.00;6.30;;;17.40;99.90;;;;;;4957694;28;89016;-34
2022/06/04 09:37:14;;;;;;;7.63;6.30;;;17.60;99.90;;;;;;4957082;28;90387;-35
2022/06/04 09:39:44;;;;;;;9.68;6.00;;;17.90;99.90;;;;;;4958188;28;89776;-35
2022/06/04 09:42:13;;;;;;;7.03;6.43;;;17.90;99.90;;;;;;4957726;28;89734;-37
2022/06/04 09:44:50;;;;;;;5.85;5.25;;;17.90;99.90;;;;;;4957342;28;88709;-35
2022/06/04 09:47:25;;;;;;;8.20;6.05;;;17.90;99.90;;;;;;4957471;28;89505;-35
2022/06/04 09:49:54;;;;;;;8.52;5.38;;;17.90;99.90;;;;;;4956482;28;90962;-35
2022/06/04 09:52:34;;;;;;;7.32;5.57;;;18.00;99.90;;;;;;4957723;28;90465;-35
2022/06/04 09:55:13;;;;;;;6.47;5.55;;;18.10;99.90;;;;;;4957109;28;89119;-37
2022/06/04 09:57:39;;;;;;;6.13;5.57;;;18.60;99.90;;;;;;4956513;28;90311;-37
2022/06/04 10:00:22;;;;;;;6.47;5.80;;;19.00;99.90;;;;;;4957638;28;89824;-38
2022/06/04 10:03:04;;;;;;;6.95;5.63;;;19.10;99.90;;;;;;4957422;28;89739;-34
2022/06/04 10:05:32;;;;;;;5.55;5.05;;;19.20;99.90;;;;;;4957657;28;89316;-36
2022/06/04 10:07:58;;;;;;;6.15;5.50;;;19.50;99.90;;;;;;4956891;28;90311;-34
2022/06/04 10:10:43;;;;;;;8.82;5.88;;;19.50;99.90;;;;;;4958038;28;89147;-38
2022/06/04 10:16:17;;;;;;;7.65;5.68;;;19.40;99.90;;;;;;4956373;28;90491;-37
2022/06/04 10:18:59;;;;;;;8.00;6.00;;;19.60;99.90;;;;;;4956328;28;89022;-36
2022/06/04 10:21:28;;;;;;;7.63;5.47;;;19.20;99.90;;;;;;4957814;28;88284;-34
2022/06/04 10:23:57;;;;;;;7.10;6.13;;;19.70;99.90;;;;;;4957300;28;89513;-35
2022/06/04 10:26:38;;;;;;;8.40;6.30;;;19.50;99.90;;;;;;4957678;28;89254;-34
2022/06/04 10:29:16;;;;;;;6.22;5.57;;;19.50;99.90;;;;;;4956514;28;90598;-34
2022/06/04 10:31:53;;;;;;;6.30;5.65;;;19.60;99.90;;;;;;4956882;28;89733;-37
2022/06/04 10:34:32;;;;;;;9.68;6.65;;;19.90;99.90;;;;;;4956953;28;88906;-38
2022/06/04 10:37:29;;;;;;;7.65;6.18;;;19.90;99.90;;;;;;4956436;28;88095;-34
2022/06/04 10:40:45;;;;;;;9.35;6.63;;;19.80;99.90;;;;;;4956059;28;90405;-36
2022/06/04 10:43:33;;;;;;;8.67;6.07;;;19.60;99.90;;;;;;4922082;28;90874;-34
2022/06/04 10:46:04;;;;;;;7.03;5.20;;;19.70;99.90;;;;;;4956435;28;90374;-38
2022/06/04 10:48:59;;;;;;;6.13;5.53;;;19.60;99.90;;;;;;4956267;28;88739;-38
2022/06/04 10:51:47;;;;;;;8.85;6.60;;;19.60;99.90;;;;;;4929133;28;90423;-34
2022/06/04 10:54:35;;;;;;;13.32;5.97;;;19.30;99.90;;;;;;4952456;28;88817;-37
2022/06/04 10:57:38;;;;;;;8.00;6.72;;;19.00;99.90;;;;;;4956546;28;89826;-36
2022/06/04 11:00:09;;;;;;;7.07;5.28;;;18.90;99.90;;;;;;4957114;28;90046;-34
2022/06/04 11:02:45;;;;;;;9.07;5.25;;;19.00;99.90;;;;;;4955786;28;91579;-39
2022/06/04 11:05:24;;;;;;;6.80;4.95;;;19.10;99.90;;;;;;4960053;28;90240;-37
2022/06/04 11:08:16;;;;;;;5.72;4.72;;;19.30;99.90;;;;;;4956476;28;89738;-36
2022/06/04 11:11:01;;;;;;;6.60;5.85;;;19.80;99.90;;;;;;4937994;28;89761;-36
2022/06/04 11:13:30;;;;;;;6.60;5.53;;;19.80;99.90;;;;;;4959657;28;90214;-37
2022/06/04 11:16:16;;;;;;;5.68;4.10;;;19.70;99.90;;;;;;4959268;28;89696;-36
2022/06/04 11:18:50;;;;;;;6.50;5.00;;;20.10;99.90;;;;;;4959589;28;89775;-34
2022/06/04 11:21:42;;;;;;;4.55;3.63;;;20.10;99.90;;;;;;4960384;28;89299;-35
2022/06/04 11:24:18;;;;;;;4.82;4.15;;;20.30;99.90;;;;;;4960463;28;90934;-36
2022/06/04 11:26:52;;;;;;;7.90;4.70;;;20.30;99.90;;;;;;4959420;28;89464;-35
2022/06/04 11:29:18;;;;;;;4.10;3.80;;;20.30;99.90;;;;;;4959243;28;90213;-37
2022/06/04 11:32:04;;;;;;;7.32;3.75;;;20.10;99.90;;;;;;4959806;28;88568;-33
2022/06/04 11:35:02;;;;;;;8.02;4.63;;;20.10;99.90;;;;;;4960163;28;91256;-36
2022/06/04 11:37:46;;;;;;;5.03;4.30;;;20.50;99.90;;;;;;4959562;28;90159;-34
2022/06/04 11:40:26;;;;;;;3.92;3.63;;;20.50;99.90;;;;;;4958448;28;90524;-33
2022/06/04 11:43:03;;;;;;;4.97;3.40;;;20.50;99.50;;;;;;4959085;28;87837;-35
2022/06/04 11:45:36;;;;;;;6.45;3.70;;;20.30;82.40;;;;;;4959584;28;89986;-34
2022/06/04 11:48:12;;;;;;;5.18;3.90;;;20.30;99.60;;;;;;4959270;28;91690;-35
2022/06/04 11:50:50;;;;;;;4.10;3.30;;;20.60;99.90;;;;;;4958694;28;89389;-37
2022/06/04 11:53:30;;;;;;;3.75;3.33;;;20.90;99.90;;;;;;4959366;28;88862;-34
2022/06/04 11:56:21;;;;;;;4.15;3.75;;;20.70;93.40;;;;;;4958974;28;90314;-37
2022/06/04 11:58:57;;;;;;;5.47;4.20;;;20.70;99.90;;;;;;4958472;28;90300;-35
2022/06/04 12:01:36;;;;;;;4.53;3.78;;;20.70;99.90;;;;;;4959128;28;89981;-36
2022/06/04 12:04:12;;;;;;;4.57;3.47;;;20.60;99.90;;;;;;4959576;28;89271;-37
2022/06/04 12:06:43;;;;;;;7.88;3.45;;;20.70;99.90;;;;;;4958850;28;90091;-34
2022/06/04 12:09:22;;;;;;;4.65;4.00;;;20.70;99.90;;;;;;4958093;28;91231;-36
2022/06/04 12:11:51;;;;;;;5.70;4.28;;;20.80;97.80;;;;;;4958945;28;90162;-38
2022/06/04 12:14:32;;;;;;;4.50;3.75;;;20.70;99.90;;;;;;4959638;28;88640;-36
2022/06/04 12:17:18;;;;;;;4.25;3.95;;;20.70;98.10;;;;;;4959401;28;90113;-36
2022/06/04 12:25:44;;;;;;;4.38;3.80;;;20.70;99.90;;;;;;4959253;28;88104;-35
2022/06/04 12:28:42;;;;;;;7.80;4.00;;;20.50;99.90;;;;;;4958786;28;89188;-38
2022/06/04 12:31:08;;;;;;;6.47;4.90;;;20.60;99.90;;;;;;4957667;28;90648;-37
2022/06/04 12:33:39;;;;;;;7.32;4.50;;;20.50;99.90;;;;;;4958524;28;91909;-33
2022/06/04 12:36:11;;;;;;;5.28;4.22;;;20.50;99.90;;;;;;4959227;28;89445;-35
2022/06/04 12:38:44;;;;;;;4.45;3.80;;;20.40;99.90;;;;;;4958180;28;89172;-34
2022/06/04 12:41:20;;;;;;;6.78;4.43;;;20.60;99.90;;;;;;4958162;28;89958;-34
2022/06/04 12:44:01;;;;;;;4.63;4.22;;;20.50;99.90;;;;;;4958047;28;89891;-38
2022/06/04 12:46:27;;;;;;;4.38;3.95;;;20.80;99.90;;;;;;4927524;28;88777;-35
2022/06/04 12:49:13;;;;;;;5.32;3.75;;;20.70;99.90;;;;;;4969141;28;90325;-37
2022/06/04 12:51:51;;;;;;;6.32;3.88;;;20.70;99.90;;;;;;4958523;28;89789;-35
2022/06/04 12:54:29;;;;;;;6.10;4.22;;;21.00;99.90;;;;;;4990339;23;88767;-37
2022/06/04 12:57:01;;;;;;;;;;;20.70;99.90;;;;;;4977914;28;90679;-35
2022/06/04 12:59:42;;;;;;;9.35;4.15;;;20.70;99.90;;;;;;4978826;28;89849;-36
2022/06/04 13:02:29;;;;;;;6.00;4.03;;;20.40;99.90;;;;;;4977819;28;89488;-38
2022/06/04 13:05:16;;;;;;;4.53;4.03;;;20.40;99.90;;;;;;4977809;28;89646;-37
2022/06/04 13:08:04;;;;;;;6.53;3.40;;;20.50;99.90;;;;;;4978648;28;89249;-35
2022/06/04 13:10:38;;;;;;;8.35;4.45;;;20.30;99.90;;;;;;4972724;28;90440;-37
2022/06/04 13:13:31;;;;;;;6.90;4.82;;;20.30;99.90;;;;;;4978623;28;90787;-36
2022/06/04 13:16:03;;;;;;;7.25;5.13;;;20.00;99.90;;;;;;4977424;28;89344;-33
2022/06/04 13:18:33;;;;;;;5.57;4.20;;;19.90;99.90;;;;;;4980708;28;88896;-34
2022/06/04 13:21:06;;;;;;;4.45;4.00;;;19.80;99.90;;;;;;4979534;28;91149;-36
2022/06/04 13:23:46;;;;;;;4.55;4.15;;;19.80;99.90;;;;;;4979113;28;90498;-34
2022/06/04 13:26:42;;;;;;;4.55;4.15;;;19.80;99.90;;;;;;4979681;28;90229;-36